Time;durP1;ratioP1;P1;durP2;ratioP2;P2;SDS_P1;SDS_P2;PMS_P1;PMS_P2;Temp;Humidity;BMP_temperature;BMP_pressure;BME280_temperature;BME280_humidity;BME280_pressure;Samples;Min_cycle;Max_cycle;Signal;HPM_P1;HPM_P2
2021/12/30 00:00:12;;;;;;;20.42;11.27;;;;;;;;;;5088553;28;20042;-66
2021/12/30 00:02:39;;;;;;;20.17;12.35;;;;;;;;;;5075006;28;20058;-65
2021/12/30 00:05:05;;;;;;;22.10;12.38;;;;;;;;;;5092877;28;20032;-65
2021/12/30 00:07:30;;;;;;;17.17;11.70;;;;;;;;;;5091391;28;20073;-65
2021/12/30 00:09:55;;;;;;;21.40;11.63;;;;;;;;;;5092822;28;20085;-65
2021/12/30 00:12:21;;;;;;;18.85;12.65;;;;;;;;;;5092748;28;20028;-66
2021/12/30 00:14:46;;;;;;;17.60;12.73;;;;;;;;;;5092612;28;20501;-64
2021/12/30 00:17:13;;;;;;;21.08;12.77;;;;;;;;;;5092801;28;20085;-65
2021/12/30 00:19:40;;;;;;;20.33;12.77;;;;;;;;;;5074795;28;20035;-64
2021/12/30 00:22:05;;;;;;;20.15;12.77;;;;;;;;;;5092492;28;20044;-65
2021/12/30 00:24:31;;;;;;;16.80;12.70;;;;;;;;;;5057656;28;20032;-65
2021/12/30 00:26:56;;;;;;;23.90;13.82;;;;;;;;;;5092624;28;20495;-66
2021/12/30 00:29:24;;;;;;;21.15;14.20;;;;;;;;;;5074571;28;20039;-66
2021/12/30 00:31:49;;;;;;;19.65;13.20;;;;;;;;;;5074537;28;20044;-66
2021/12/30 00:34:14;;;;;;;16.20;12.95;;;;;;;;;;5074491;28;20035;-66
2021/12/30 00:36:41;;;;;;;20.58;12.45;;;;;;;;;;5092677;28;20433;-65
2021/12/30 00:39:06;;;;;;;21.25;13.38;;;;;;;;;;5073978;28;20031;-66
2021/12/30 00:41:32;;;;;;;22.23;14.45;;;;;;;;;;5092359;28;20036;-65
2021/12/30 00:43:57;;;;;;;20.88;13.70;;;;;;;;;;5074112;28;20077;-65
2021/12/30 00:46:23;;;;;;;20.58;13.10;;;;;;;;;;5092223;28;20051;-65
2021/12/30 00:48:48;;;;;;;19.42;13.02;;;;;;;;;;5092352;28;20039;-66
2021/12/30 00:51:14;;;;;;;20.33;13.80;;;;;;;;;;5092067;28;20043;-65
2021/12/30 00:53:41;;;;;;;20.58;13.50;;;;;;;;;;5092017;28;20036;-65
2021/12/30 00:56:06;;;;;;;21.90;14.55;;;;;;;;;;5074431;28;20093;-64
2021/12/30 00:58:32;;;;;;;20.65;14.60;;;;;;;;;;5075669;28;20115;-65
2021/12/30 01:00:59;;;;;;;23.13;14.43;;;;;;;;;;5096026;28;20032;-65
2021/12/30 01:03:25;;;;;;;19.08;14.68;;;;;;;;;;5094320;28;20032;-65
2021/12/30 01:05:50;;;;;;;18.45;13.65;;;;;;;;;;5095898;28;20034;-64
2021/12/30 01:08:15;;;;;;;21.50;14.00;;;;;;;;;;5095535;28;20085;-65
2021/12/30 01:10:42;;;;;;;20.88;14.45;;;;;;;;;;5094433;28;20065;-65
2021/12/30 01:13:14;;;;;;;20.73;13.65;;;;;;;;;;5095630;28;20032;-65
2021/12/30 01:15:58;;;;;;;18.27;13.73;;;;;;;;;;5078397;28;20028;-65
2021/12/30 01:20:52;;;;;;;20.17;14.40;;;;;;;;;;5077181;28;20040;-65
2021/12/30 01:23:18;;;;;;;21.23;13.70;;;;;;;;;;5095566;28;20043;-65
2021/12/30 01:25:44;;;;;;;18.48;13.55;;;;;;;;;;5095408;28;20032;-65
2021/12/30 01:28:09;;;;;;;17.13;14.02;;;;;;;;;;5095348;28;20073;-65
2021/12/30 01:30:35;;;;;;;18.40;13.93;;;;;;;;;;5095496;28;20067;-66
2021/12/30 01:33:00;;;;;;;19.70;14.80;;;;;;;;;;5095301;28;20387;-65
2021/12/30 01:35:26;;;;;;;21.23;13.75;;;;;;;;;;5095133;28;20036;-65
2021/12/30 01:37:53;;;;;;;18.02;13.82;;;;;;;;;;5076959;28;20547;-66
2021/12/30 01:40:20;;;;;;;21.70;14.48;;;;;;;;;;5095213;28;20502;-66
2021/12/30 01:42:45;;;;;;;22.73;14.35;;;;;;;;;;5095333;28;20039;-66
2021/12/30 01:45:11;;;;;;;21.33;13.40;;;;;;;;;;5095130;28;20024;-65
2021/12/30 01:47:42;;;;;;;16.92;13.82;;;;;;;;;;5076812;28;20135;-66
2021/12/30 01:50:08;;;;;;;18.45;13.13;;;;;;;;;;5076788;28;20040;-66
2021/12/30 01:52:34;;;;;;;20.00;13.43;;;;;;;;;;5076857;28;20028;-66
2021/12/30 01:54:59;;;;;;;21.30;13.45;;;;;;;;;;5094930;28;20038;-66
2021/12/30 01:57:25;;;;;;;20.50;14.80;;;;;;;;;;5076860;28;20070;-65
2021/12/30 01:59:50;;;;;;;21.05;13.80;;;;;;;;;;5094207;28;20032;-65
2021/12/30 02:02:16;;;;;;;21.23;13.50;;;;;;;;;;5094738;28;20066;-65
2021/12/30 02:04:44;;;;;;;24.70;13.65;;;;;;;;;;5094381;28;20081;-66
2021/12/30 02:07:10;;;;;;;20.98;13.25;;;;;;;;;;5076705;28;20036;-65
2021/12/30 02:09:35;;;;;;;27.10;15.23;;;;;;;;;;5094425;28;20120;-65
2021/12/30 02:12:01;;;;;;;22.98;15.07;;;;;;;;;;5093536;28;20040;-65
2021/12/30 02:14:31;;;;;;;31.33;15.75;;;;;;;;;;5094630;28;20054;-65
2021/12/30 02:16:56;;;;;;;31.63;15.73;;;;;;;;;;5076593;28;20032;-65
2021/12/30 02:19:22;;;;;;;29.08;15.10;;;;;;;;;;5076345;28;20035;-64
2021/12/30 02:21:47;;;;;;;26.27;14.52;;;;;;;;;;5076344;28;20036;-65
2021/12/30 02:24:12;;;;;;;23.60;14.20;;;;;;;;;;5094636;28;20028;-66
2021/12/30 02:26:38;;;;;;;22.27;14.07;;;;;;;;;;5094434;28;20059;-66
2021/12/30 02:29:03;;;;;;;25.80;14.55;;;;;;;;;;5094332;28;20039;-64
2021/12/30 02:31:29;;;;;;;21.70;14.13;;;;;;;;;;5094368;28;20118;-65
2021/12/30 02:33:56;;;;;;;26.42;14.98;;;;;;;;;;5094246;28;20039;-64
2021/12/30 02:36:24;;;;;;;23.30;14.55;;;;;;;;;;5076161;28;20036;-66
2021/12/30 02:38:49;;;;;;;19.60;12.73;;;;;;;;;;5075927;28;20069;-66
2021/12/30 02:41:17;;;;;;;20.30;13.95;;;;;;;;;;5094217;28;20032;-66
2021/12/30 02:43:43;;;;;;;23.85;13.35;;;;;;;;;;5075927;28;20028;-65
2021/12/30 02:46:09;;;;;;;22.45;15.45;;;;;;;;;;5094151;28;20042;-65
2021/12/30 02:48:35;;;;;;;22.75;15.35;;;;;;;;;;5093960;28;20506;-65
2021/12/30 02:51:03;;;;;;;17.50;12.27;;;;;;;;;;5075861;28;20036;-64
2021/12/30 02:53:28;;;;;;;17.25;13.07;;;;;;;;;;5094095;28;20020;-65
2021/12/30 02:55:54;;;;;;;24.70;15.05;;;;;;;;;;5093890;28;20386;-65
2021/12/30 02:58:20;;;;;;;26.85;14.88;;;;;;;;;;5058568;28;20566;-65
2021/12/30 03:00:46;;;;;;;23.33;14.40;;;;;;;;;;5075526;28;20040;-65
2021/12/30 03:03:19;;;;;;;24.55;14.65;;;;;;;;;;5075610;28;20036;-66
2021/12/30 03:05:45;;;;;;;27.05;14.75;;;;;;;;;;5075638;28;20040;-65
2021/12/30 03:08:11;;;;;;;27.48;14.38;;;;;;;;;;5075563;28;20448;-64
2021/12/30 03:10:36;;;;;;;30.23;14.75;;;;;;;;;;5092564;28;20032;-66
2021/12/30 03:13:07;;;;;;;18.70;12.98;;;;;;;;;;5075665;28;20032;-65
2021/12/30 03:15:32;;;;;;;19.73;13.38;;;;;;;;;;5075687;28;20059;-66
2021/12/30 03:17:58;;;;;;;20.38;13.00;;;;;;;;;;5093473;28;20070;-65
2021/12/30 03:20:23;;;;;;;24.65;12.95;;;;;;;;;;5093120;28;20024;-65
2021/12/30 03:22:49;;;;;;;20.08;13.70;;;;;;;;;;5093366;28;20032;-65
2021/12/30 03:25:15;;;;;;;18.15;12.57;;;;;;;;;;5093481;28;20032;-65
2021/12/30 03:27:41;;;;;;;19.10;11.43;;;;;;;;;;5075370;28;20121;-65
2021/12/30 03:30:09;;;;;;;15.85;11.80;;;;;;;;;;5093440;28;20475;-65
2021/12/30 03:32:35;;;;;;;20.33;12.48;;;;;;;;;;5093247;28;20036;-65
2021/12/30 03:35:01;;;;;;;17.85;12.30;;;;;;;;;;5075238;28;20169;-66
2021/12/30 03:37:32;;;;;;;18.20;12.52;;;;;;;;;;5075284;28;20036;-66
2021/12/30 03:39:58;;;;;;;20.55;12.05;;;;;;;;;;5075179;28;20043;-65
2021/12/30 03:42:23;;;;;;;16.38;12.18;;;;;;;;;;5075118;28;20036;-65
2021/12/30 03:44:49;;;;;;;19.50;12.10;;;;;;;;;;5093106;28;20032;-66
2021/12/30 03:47:18;;;;;;;16.42;11.45;;;;;;;;;;5093110;28;20429;-65
2021/12/30 03:49:47;;;;;;;22.15;12.85;;;;;;;;;;5075046;28;20043;-65
2021/12/30 03:52:15;;;;;;;16.23;11.53;;;;;;;;;;5093244;28;20036;-65
2021/12/30 03:54:41;;;;;;;15.57;11.32;;;;;;;;;;5075023;28;20761;-64
2021/12/30 03:57:06;;;;;;;15.77;11.23;;;;;;;;;;5074924;28;20123;-64
2021/12/30 03:59:32;;;;;;;15.05;11.48;;;;;;;;;;5092822;28;20533;-65
2021/12/30 04:01:57;;;;;;;15.45;11.93;;;;;;;;;;5091939;28;20102;-67
2021/12/30 04:04:22;;;;;;;20.92;13.20;;;;;;;;;;5068713;28;20395;-65
2021/12/30 04:06:48;;;;;;;17.40;11.95;;;;;;;;;;5069070;28;20087;-66
2021/12/30 04:09:13;;;;;;;17.58;12.32;;;;;;;;;;5068790;28;20546;-66
2021/12/30 04:11:39;;;;;;;20.58;13.00;;;;;;;;;;5068799;28;20047;-67
2021/12/30 04:14:04;;;;;;;21.77;14.38;;;;;;;;;;5069052;28;20028;-65
2021/12/30 04:16:29;;;;;;;19.38;13.35;;;;;;;;;;5068488;28;20119;-65
2021/12/30 04:18:55;;;;;;;25.00;14.65;;;;;;;;;;5068437;28;20107;-65
2021/12/30 04:21:21;;;;;;;19.70;13.32;;;;;;;;;;5050866;28;20036;-65
2021/12/30 04:23:46;;;;;;;20.73;13.98;;;;;;;;;;5050709;28;20116;-64
2021/12/30 04:26:12;;;;;;;20.95;14.82;;;;;;;;;;5050713;28;20127;-65
2021/12/30 04:28:37;;;;;;;23.73;14.95;;;;;;;;;;5068311;28;20103;-65
2021/12/30 04:31:03;;;;;;;18.45;13.60;;;;;;;;;;5068310;28;20044;-65
2021/12/30 04:33:29;;;;;;;19.23;12.90;;;;;;;;;;5067198;28;20371;-67
2021/12/30 04:35:56;;;;;;;22.98;13.65;;;;;;;;;;5050729;28;20090;-66
2021/12/30 04:38:23;;;;;;;27.70;13.25;;;;;;;;;;5050547;28;20035;-66
2021/12/30 04:40:48;;;;;;;20.17;13.40;;;;;;;;;;5050260;28;20484;-66
2021/12/30 04:43:14;;;;;;;21.83;13.05;;;;;;;;;;5068417;28;20081;-64
2021/12/30 04:45:39;;;;;;;19.02;13.35;;;;;;;;;;5058836;28;20040;-65
2021/12/30 04:48:05;;;;;;;26.33;13.13;;;;;;;;;;5053759;28;20032;-65
2021/12/30 04:50:30;;;;;;;19.73;12.88;;;;;;;;;;5088936;28;20043;-65
2021/12/30 04:52:56;;;;;;;22.45;13.32;;;;;;;;;;5088225;28;20089;-65
2021/12/30 04:55:21;;;;;;;19.60;12.13;;;;;;;;;;5088298;28;20036;-65
2021/12/30 04:57:47;;;;;;;20.35;12.30;;;;;;;;;;5088597;28;20499;-65
2021/12/30 05:00:13;;;;;;;17.67;11.02;;;;;;;;;;5069917;28;20532;-64
2021/12/30 05:05:25;;;;;;;16.02;12.00;;;;;;;;;;5074168;28;20090;-67
2021/12/30 05:07:50;;;;;;;16.73;10.60;;;;;;;;;;5087230;28;20422;-65
2021/12/30 05:10:16;;;;;;;19.83;11.40;;;;;;;;;;5087008;28;20050;-64
2021/12/30 05:12:41;;;;;;;12.90;9.70;;;;;;;;;;5088120;28;20483;-65
2021/12/30 05:15:07;;;;;;;14.40;11.52;;;;;;;;;;5088476;28;20063;-66
2021/12/30 05:17:34;;;;;;;16.40;12.45;;;;;;;;;;5088156;28;20032;-65
2021/12/30 05:20:00;;;;;;;17.75;13.60;;;;;;;;;;5086567;28;20036;-65
2021/12/30 05:22:25;;;;;;;16.95;12.20;;;;;;;;;;5088025;28;20034;-66
2021/12/30 05:24:50;;;;;;;16.52;11.65;;;;;;;;;;5087700;28;20040;-65
2021/12/30 05:27:18;;;;;;;18.75;12.43;;;;;;;;;;5088203;28;20032;-65
2021/12/30 05:29:43;;;;;;;20.42;11.77;;;;;;;;;;5087909;28;20042;-66
2021/12/30 05:32:08;;;;;;;20.85;11.55;;;;;;;;;;5086942;28;20140;-65
2021/12/30 05:34:34;;;;;;;14.00;11.27;;;;;;;;;;5087415;28;20084;-65
2021/12/30 05:36:59;;;;;;;21.25;10.75;;;;;;;;;;5086843;28;20043;-64
2021/12/30 05:39:25;;;;;;;15.90;10.77;;;;;;;;;;5087678;28;20028;-66
2021/12/30 05:41:50;;;;;;;20.17;11.57;;;;;;;;;;5087856;28;20032;-65
2021/12/30 05:44:15;;;;;;;16.15;11.02;;;;;;;;;;5088776;28;20408;-66
2021/12/30 05:46:41;;;;;;;19.73;10.43;;;;;;;;;;5089772;28;20024;-65
2021/12/30 05:49:06;;;;;;;17.90;10.10;;;;;;;;;;5091268;28;20044;-65
2021/12/30 05:51:32;;;;;;;15.45;10.02;;;;;;;;;;5056301;28;20078;-66
2021/12/30 05:53:57;;;;;;;15.23;9.88;;;;;;;;;;5091401;28;20028;-65
2021/12/30 05:56:22;;;;;;;18.42;10.52;;;;;;;;;;5090997;28;20028;-67
2021/12/30 05:58:48;;;;;;;14.68;8.82;;;;;;;;;;5090672;28;20032;-66
2021/12/30 06:01:13;;;;;;;15.13;9.40;;;;;;;;;;5072569;28;20036;-65
2021/12/30 06:03:39;;;;;;;16.55;9.50;;;;;;;;;;5089856;28;20032;-66
2021/12/30 06:06:04;;;;;;;13.43;9.52;;;;;;;;;;5091140;28;20102;-65
2021/12/30 06:08:30;;;;;;;13.90;8.55;;;;;;;;;;5090797;28;20440;-65
2021/12/30 06:10:55;;;;;;;17.13;9.60;;;;;;;;;;5090782;28;20051;-63
2021/12/30 06:13:21;;;;;;;15.00;9.68;;;;;;;;;;5072306;28;20028;-65
2021/12/30 06:15:46;;;;;;;16.80;9.55;;;;;;;;;;5073218;28;20109;-67
2021/12/30 06:18:11;;;;;;;17.50;9.73;;;;;;;;;;5089733;28;20055;-65
2021/12/30 06:20:37;;;;;;;21.85;9.30;;;;;;;;;;5090387;28;20115;-66
2021/12/30 06:23:02;;;;;;;15.60;9.73;;;;;;;;;;5090441;28;20111;-65
2021/12/30 06:25:28;;;;;;;14.27;9.68;;;;;;;;;;5072346;28;20085;-67
2021/12/30 06:27:53;;;;;;;17.10;10.10;;;;;;;;;;5090640;28;20023;-65
2021/12/30 06:30:19;;;;;;;16.02;9.15;;;;;;;;;;5090678;28;20086;-68
2021/12/30 06:32:45;;;;;;;13.43;8.52;;;;;;;;;;5090728;28;20020;-67
2021/12/30 06:35:10;;;;;;;15.98;9.05;;;;;;;;;;5072037;28;20036;-66
2021/12/30 06:37:36;;;;;;;14.75;9.75;;;;;;;;;;5090369;28;20493;-66
2021/12/30 06:40:02;;;;;;;18.55;10.10;;;;;;;;;;5090882;28;20024;-65
2021/12/30 06:42:28;;;;;;;16.45;9.00;;;;;;;;;;5072372;28;20040;-66
2021/12/30 06:44:53;;;;;;;14.43;8.60;;;;;;;;;;5071492;28;20062;-65
2021/12/30 06:47:19;;;;;;;17.10;9.05;;;;;;;;;;5090292;28;20486;-66
2021/12/30 06:49:44;;;;;;;18.05;10.20;;;;;;;;;;5072316;28;20043;-65
2021/12/30 06:52:11;;;;;;;21.25;10.07;;;;;;;;;;5089217;28;20032;-65
2021/12/30 06:54:37;;;;;;;12.63;9.05;;;;;;;;;;5089649;28;20044;-66
2021/12/30 06:57:03;;;;;;;17.73;9.13;;;;;;;;;;5089139;28;20081;-65
2021/12/30 06:59:29;;;;;;;21.02;10.15;;;;;;;;;;5071650;28;20040;-66
2021/12/30 07:01:57;;;;;;;16.60;10.98;;;;;;;;;;5089802;28;20031;-66
2021/12/30 07:04:26;;;;;;;20.25;10.23;;;;;;;;;;5071937;28;20124;-66
2021/12/30 07:06:52;;;;;;;19.27;9.52;;;;;;;;;;5054697;28;20040;-63
2021/12/30 07:09:18;;;;;;;16.13;9.63;;;;;;;;;;5071721;28;20024;-67
2021/12/30 07:11:43;;;;;;;19.38;9.23;;;;;;;;;;5071208;28;20032;-66
2021/12/30 07:14:08;;;;;;;18.75;9.48;;;;;;;;;;5088906;28;20139;-63
2021/12/30 07:16:34;;;;;;;14.15;9.85;;;;;;;;;;5071352;28;20083;-65
2021/12/30 07:18:59;;;;;;;17.17;9.32;;;;;;;;;;5089719;28;20518;-65
2021/12/30 07:21:25;;;;;;;22.42;9.35;;;;;;;;;;5088960;28;20379;-65
2021/12/30 07:23:50;;;;;;;16.48;9.50;;;;;;;;;;5070598;28;20122;-65
2021/12/30 07:26:16;;;;;;;20.17;7.90;;;;;;;;;;5071524;28;20046;-68
2021/12/30 07:28:41;;;;;;;16.98;7.07;;;;;;;;;;5089525;28;20047;-66
2021/12/30 07:31:07;;;;;;;22.50;7.05;;;;;;;;;;5071461;28;20027;-65
2021/12/30 07:33:33;;;;;;;26.13;7.18;;;;;;;;;;5054566;28;20039;-66
2021/12/30 07:35:58;;;;;;;15.35;6.28;;;;;;;;;;5064634;28;20479;-65
2021/12/30 07:38:23;;;;;;;16.73;6.10;;;;;;;;;;5086016;28;20043;-67
2021/12/30 07:40:49;;;;;;;12.90;5.28;;;;;;;;;;5089883;28;20039;-66
2021/12/30 07:43:14;;;;;;;12.07;5.90;;;;;;;;;;5070948;28;20044;-66
2021/12/30 07:45:40;;;;;;;368.98;115.88;;;;;;;;;;5082022;28;20493;-66
2021/12/30 07:48:05;;;;;;;16.63;8.27;;;;;;;;;;5088008;28;20468;-66
2021/12/30 07:50:31;;;;;;;215.27;78.43;;;;;;;;;;5087822;28;20386;-66
2021/12/30 07:52:56;;;;;;;118.95;53.72;;;;;;;;;;5069643;28;20030;-65
2021/12/30 07:55:22;;;;;;;47.20;22.13;;;;;;;;;;5063439;28;20029;-64
2021/12/30 07:57:47;;;;;;;58.20;27.25;;;;;;;;;;5082857;28;20028;-65
2021/12/30 08:00:14;;;;;;;42.00;20.17;;;;;;;;;;5087766;28;20020;-65
2021/12/30 08:02:42;;;;;;;35.40;16.77;;;;;;;;;;5053193;28;20123;-66
2021/12/30 08:05:09;;;;;;;23.95;13.88;;;;;;;;;;5053690;28;20081;-66
2021/12/30 08:07:34;;;;;;;24.05;11.48;;;;;;;;;;5088304;28;20038;-66
2021/12/30 08:10:00;;;;;;;22.30;10.63;;;;;;;;;;5087507;28;20111;-64
2021/12/30 08:12:25;;;;;;;25.20;11.10;;;;;;;;;;5088226;28;20032;-66
2021/12/30 08:14:50;;;;;;;34.85;10.02;;;;;;;;;;5052573;28;20028;-66
2021/12/30 08:17:16;;;;;;;26.80;10.73;;;;;;;;;;5088923;28;20085;-66
2021/12/30 08:19:43;;;;;;;23.08;10.25;;;;;;;;;;5088976;28;20075;-66
2021/12/30 08:22:09;;;;;;;25.42;11.93;;;;;;;;;;5088415;28;20032;-66
2021/12/30 08:24:35;;;;;;;23.63;10.25;;;;;;;;;;5066585;28;20033;-66
2021/12/30 08:27:01;;;;;;;22.92;9.43;;;;;;;;;;5059308;28;20032;-66
2021/12/30 08:29:27;;;;;;;17.70;8.30;;;;;;;;;;5087865;28;20470;-66
2021/12/30 08:31:52;;;;;;;15.25;7.85;;;;;;;;;;5088455;28;20101;-67
2021/12/30 08:34:18;;;;;;;18.90;8.27;;;;;;;;;;5050260;28;20036;-67
2021/12/30 08:36:43;;;;;;;25.95;8.18;;;;;;;;;;5074291;28;20048;-66
2021/12/30 08:39:09;;;;;;;23.98;7.80;;;;;;;;;;5061823;28;20056;-68
2021/12/30 08:41:34;;;;;;;18.65;7.35;;;;;;;;;;5083872;28;20047;-67
2021/12/30 08:44:00;;;;;;;20.83;7.57;;;;;;;;;;5087958;28;20040;-68
2021/12/30 08:46:25;;;;;;;15.98;7.43;;;;;;;;;;5087018;28;20497;-68
2021/12/30 08:48:51;;;;;;;14.55;7.13;;;;;;;;;;5085755;28;20055;-68
2021/12/30 08:51:16;;;;;;;15.15;6.68;;;;;;;;;;5088269;28;20032;-67
2021/12/30 08:53:41;;;;;;;20.15;7.38;;;;;;;;;;5088007;28;20115;-70
2021/12/30 08:56:08;;;;;;;17.02;7.18;;;;;;;;;;5068275;28;20032;-69
2021/12/30 08:58:34;;;;;;;18.48;6.95;;;;;;;;;;5048318;28;20039;-69
2021/12/30 09:00:59;;;;;;;12.75;6.28;;;;;;;;;;5081113;28;20032;-68
2021/12/30 09:03:25;;;;;;;20.77;6.55;;;;;;;;;;5086078;28;20097;-64
2021/12/30 09:05:50;;;;;;;12.40;7.05;;;;;;;;;;5052542;28;20044;-63
2021/12/30 09:08:16;;;;;;;14.23;7.68;;;;;;;;;;5066324;28;20077;-64
2021/12/30 09:10:45;;;;;;;17.27;7.25;;;;;;;;;;5086828;28;20083;-63
2021/12/30 09:13:11;;;;;;;;;;;;;;;;;;5069061;28;20483;-64
2021/12/30 09:15:36;;;;;;;21.13;9.02;;;;;;;;;;5068991;28;19920;-65
2021/12/30 09:18:02;;;;;;;53.75;29.02;;;;;;;;;;5068841;28;20453;-67
2021/12/30 09:20:28;;;;;;;22.15;10.95;;;;;;;;;;5069816;28;20103;-63
2021/12/30 09:22:54;;;;;;;20.08;9.18;;;;;;;;;;5089623;28;20119;-64
2021/12/30 09:25:23;;;;;;;19.02;8.73;;;;;;;;;;5089258;28;20040;-64
2021/12/30 09:27:48;;;;;;;12.18;8.07;;;;;;;;;;5090433;28;20036;-64
2021/12/30 09:30:15;;;;;;;15.55;8.57;;;;;;;;;;5072031;28;20036;-64
2021/12/30 09:32:41;;;;;;;12.73;8.10;;;;;;;;;;5088456;28;20483;-64
2021/12/30 09:35:07;;;;;;;13.63;8.23;;;;;;;;;;5089456;28;20032;-64
2021/12/30 09:37:32;;;;;;;14.40;8.13;;;;;;;;;;5089840;28;20042;-65
2021/12/30 09:39:59;;;;;;;10.90;8.13;;;;;;;;;;5089247;28;20028;-64
2021/12/30 09:42:24;;;;;;;15.75;8.13;;;;;;;;;;5064155;28;20036;-65
2021/12/30 09:44:50;;;;;;;15.85;8.05;;;;;;;;;;5052704;28;20543;-63
2021/12/30 09:47:15;;;;;;;11.68;7.30;;;;;;;;;;5066240;28;20032;-63
2021/12/30 09:49:41;;;;;;;16.02;7.82;;;;;;;;;;5087947;28;20111;-61
2021/12/30 09:52:06;;;;;;;14.13;7.85;;;;;;;;;;5089233;28;20067;-63
2021/12/30 09:54:32;;;;;;;13.63;7.78;;;;;;;;;;5087784;28;20020;-73
2021/12/30 09:56:57;;;;;;;12.93;7.72;;;;;;;;;;5068465;28;20104;-63
2021/12/30 09:59:24;;;;;;;13.93;7.57;;;;;;;;;;5087742;28;20046;-64
2021/12/30 10:01:50;;;;;;;10.38;6.78;;;;;;;;;;5088194;28;20032;-64
2021/12/30 10:04:15;;;;;;;13.07;6.90;;;;;;;;;;5088252;28;20505;-62
2021/12/30 10:06:42;;;;;;;11.45;6.60;;;;;;;;;;5086219;28;20483;-64
2021/12/30 10:09:13;;;;;;;12.38;6.70;;;;;;;;;;5070563;28;20040;-61
2021/12/30 10:11:45;;;;;;;15.95;7.70;;;;;;;;;;5054425;28;20071;-64
2021/12/30 10:14:11;;;;;;;14.80;7.80;;;;;;;;;;5071737;28;20044;-64
2021/12/30 10:16:36;;;;;;;13.68;6.22;;;;;;;;;;5088284;28;20027;-65
2021/12/30 10:19:05;;;;;;;13.73;7.22;;;;;;;;;;5088746;28;20126;-62
2021/12/30 10:21:30;;;;;;;14.65;7.07;;;;;;;;;;5089768;28;20039;-66
2021/12/30 10:23:58;;;;;;;15.50;6.63;;;;;;;;;;5087801;28;20044;-65
2021/12/30 10:26:23;;;;;;;15.93;6.45;;;;;;;;;;5052420;28;20029;-64
2021/12/30 10:28:51;;;;;;;12.90;7.03;;;;;;;;;;5068462;28;20035;-65
2021/12/30 10:31:18;;;;;;;11.93;6.28;;;;;;;;;;5069650;28;20497;-64
2021/12/30 10:33:49;;;;;;;13.57;6.65;;;;;;;;;;5069272;28;20553;-60
2021/12/30 10:36:16;;;;;;;15.75;6.10;;;;;;;;;;5052394;28;20369;-61
2021/12/30 10:38:41;;;;;;;13.07;6.28;;;;;;;;;;5070191;28;20044;-60
2021/12/30 10:41:07;;;;;;;18.30;7.18;;;;;;;;;;5070077;28;20040;-62
2021/12/30 10:43:38;;;;;;;13.48;6.70;;;;;;;;;;5052589;28;20068;-60
2021/12/30 10:46:14;;;;;;;12.50;6.60;;;;;;;;;;5084449;28;20457;-68
2021/12/30 10:48:49;;;;;;;13.02;6.82;;;;;;;;;;5059520;28;20039;-67
2021/12/30 10:51:20;;;;;;;16.13;7.20;;;;;;;;;;5089949;28;20052;-68
2021/12/30 10:53:47;;;;;;;25.98;11.07;;;;;;;;;;5089217;28;20059;-67
2021/12/30 10:56:23;;;;;;;20.13;8.75;;;;;;;;;;5070908;28;20474;-68
2021/12/30 10:58:50;;;;;;;15.23;6.88;;;;;;;;;;5070458;28;20024;-67
2021/12/30 11:01:19;;;;;;;17.10;6.68;;;;;;;;;;5069917;28;20027;-67
2021/12/30 11:03:56;;;;;;;15.57;7.15;;;;;;;;;;5069328;28;20499;-67
2021/12/30 11:06:21;;;;;;;16.40;6.75;;;;;;;;;;5051532;28;20062;-68
2021/12/30 11:08:49;;;;;;;12.45;6.68;;;;;;;;;;5086668;28;20483;-68
2021/12/30 11:11:22;;;;;;;19.83;7.88;;;;;;;;;;5053029;28;20035;-68
2021/12/30 11:13:59;;;;;;;14.48;6.25;;;;;;;;;;5068590;28;20028;-68
2021/12/30 11:16:25;;;;;;;13.43;6.28;;;;;;;;;;5087768;28;20472;-68
2021/12/30 11:18:50;;;;;;;16.27;7.00;;;;;;;;;;5087521;28;20023;-68
2021/12/30 11:21:34;;;;;;;15.25;6.70;;;;;;;;;;5087754;28;20400;-67
2021/12/30 11:24:01;;;;;;;11.65;6.93;;;;;;;;;;5088026;28;20032;-67
2021/12/30 11:26:27;;;;;;;13.75;6.72;;;;;;;;;;5088447;28;20036;-66
2021/12/30 11:28:52;;;;;;;14.55;6.88;;;;;;;;;;5088150;28;20051;-67
2021/12/30 11:31:18;;;;;;;15.85;6.75;;;;;;;;;;5070067;28;20024;-66
2021/12/30 11:33:43;;;;;;;16.23;7.00;;;;;;;;;;5070498;28;20032;-67
2021/12/30 11:36:09;;;;;;;11.73;6.65;;;;;;;;;;5089943;28;20122;-66
2021/12/30 11:38:34;;;;;;;13.63;6.90;;;;;;;;;;5089701;28;20068;-67
2021/12/30 11:41:00;;;;;;;19.42;7.10;;;;;;;;;;5071806;28;20487;-67
2021/12/30 11:43:40;;;;;;;13.65;6.32;;;;;;;;;;5088799;28;20024;-67
2021/12/30 11:46:05;;;;;;;13.38;6.97;;;;;;;;;;5088602;28;20070;-69
2021/12/30 11:48:38;;;;;;;14.93;7.13;;;;;;;;;;5089951;28;20063;-61
2021/12/30 11:51:11;;;;;;;12.90;6.38;;;;;;;;;;5089589;28;20063;-63
2021/12/30 11:53:38;;;;;;;14.93;6.80;;;;;;;;;;5071156;28;20040;-63
2021/12/30 11:56:17;;;;;;;15.02;7.13;;;;;;;;;;5070916;28;20040;-64
2021/12/30 11:58:49;;;;;;;11.30;5.90;;;;;;;;;;5087904;28;20107;-64
2021/12/30 12:01:19;;;;;;;11.38;7.25;;;;;;;;;;5086267;28;20063;-63
2021/12/30 12:03:53;;;;;;;15.27;8.10;;;;;;;;;;5083869;28;20047;-66
2021/12/30 12:06:27;;;;;;;16.40;8.40;;;;;;;;;;5066900;28;20029;-64
2021/12/30 12:08:56;;;;;;;21.45;8.38;;;;;;;;;;5064574;28;20043;-67
2021/12/30 12:11:23;;;;;;;19.90;8.40;;;;;;;;;;5081387;28;20136;-63
2021/12/30 12:13:49;;;;;;;15.93;7.70;;;;;;;;;;5084057;28;20751;-63
2021/12/30 12:16:16;;;;;;;16.92;8.05;;;;;;;;;;5081805;28;20491;-65
2021/12/30 12:19:00;;;;;;;16.30;8.32;;;;;;;;;;5075494;28;20024;-64
2021/12/30 12:21:39;;;;;;;13.88;7.35;;;;;;;;;;5088073;28;20412;-67
2021/12/30 12:24:23;;;;;;;15.25;7.45;;;;;;;;;;5086752;28;20036;-64
2021/12/30 12:26:49;;;;;;;12.80;8.02;;;;;;;;;;5087619;28;20040;-63
2021/12/30 12:29:24;;;;;;;20.75;8.35;;;;;;;;;;5086053;28;20036;-64
2021/12/30 12:31:57;;;;;;;13.55;7.57;;;;;;;;;;5080399;28;20115;-64
2021/12/30 12:34:37;;;;;;;12.85;7.90;;;;;;;;;;5084648;28;20024;-64
2021/12/30 12:37:03;;;;;;;17.48;8.13;;;;;;;;;;5085567;28;20035;-65
2021/12/30 12:39:32;;;;;;;14.15;8.10;;;;;;;;;;5085977;28;20036;-63
2021/12/30 12:41:58;;;;;;;;;;;;;;;;;;5081985;28;20474;-62
2021/12/30 12:44:23;;;;;;;13.23;7.80;;;;;;;;;;5085271;28;19916;-61
2021/12/30 12:46:50;;;;;;;15.32;8.38;;;;;;;;;;5085794;28;20258;-60
2021/12/30 12:49:35;;;;;;;14.93;7.72;;;;;;;;;;5087475;28;20475;-61
2021/12/30 12:52:03;;;;;;;12.80;8.05;;;;;;;;;;5074281;28;20048;-60
2021/12/30 12:54:31;;;;;;;30.52;8.45;;;;;;;;;;5088481;28;20024;-61
2021/12/30 12:57:03;;;;;;;16.45;8.90;;;;;;;;;;5091765;28;20047;-61
2021/12/30 12:59:33;;;;;;;19.48;8.25;;;;;;;;;;5070563;28;20036;-61
2021/12/30 13:01:58;;;;;;;;;;;;;;;;;;5085666;28;20055;-61
2021/12/30 13:04:23;;;;;;;18.50;8.27;;;;;;;;;;5091714;28;19920;-61
2021/12/30 13:06:49;;;;;;;25.98;8.43;;;;;;;;;;5073588;28;20028;-60
2021/12/30 13:09:18;;;;;;;19.08;8.98;;;;;;;;;;5091840;28;20044;-60
2021/12/30 13:11:45;;;;;;;15.88;8.57;;;;;;;;;;5091881;28;20060;-62
2021/12/30 13:14:14;;;;;;;17.13;7.85;;;;;;;;;;5091980;28;20063;-60
2021/12/30 13:16:40;;;;;;;12.95;7.68;;;;;;;;;;5091815;28;20024;-60
2021/12/30 13:19:15;;;;;;;20.65;8.13;;;;;;;;;;5092012;28;20036;-60
2021/12/30 13:21:46;;;;;;;13.27;7.25;;;;;;;;;;5091916;28;20085;-60
2021/12/30 13:24:29;;;;;;;12.73;7.10;;;;;;;;;;5091489;28;20498;-63
2021/12/30 13:26:55;;;;;;;14.05;7.00;;;;;;;;;;5091648;28;20119;-60
2021/12/30 13:29:27;;;;;;;10.90;6.63;;;;;;;;;;5091541;28;20154;-64
2021/12/30 13:32:00;;;;;;;11.38;6.88;;;;;;;;;;5091628;28;20149;-60
2021/12/30 13:34:25;;;;;;;15.50;6.45;;;;;;;;;;5091656;28;20044;-61
2021/12/30 13:36:52;;;;;;;13.30;6.97;;;;;;;;;;5090941;28;20176;-60
2021/12/30 13:39:19;;;;;;;17.52;6.95;;;;;;;;;;5091460;28;20036;-63
2021/12/30 13:41:55;;;;;;;11.25;6.82;;;;;;;;;;5084185;28;20008;-62
2021/12/30 13:44:23;;;;;;;14.90;7.40;;;;;;;;;;5090847;28;20042;-60
2021/12/30 13:46:48;;;;;;;12.48;6.28;;;;;;;;;;5090921;28;20032;-60
2021/12/30 13:49:14;;;;;;;11.90;6.68;;;;;;;;;;5090848;28;20119;-58
2021/12/30 13:51:40;;;;;;;17.23;7.32;;;;;;;;;;5091365;28;20105;-59
2021/12/30 13:54:08;;;;;;;12.35;6.65;;;;;;;;;;5090070;28;20043;-60
2021/12/30 13:56:34;;;;;;;13.43;6.35;;;;;;;;;;5090788;28;20892;-60
2021/12/30 13:59:03;;;;;;;11.85;6.60;;;;;;;;;;5091199;28;20135;-59
2021/12/30 14:01:32;;;;;;;17.38;7.68;;;;;;;;;;5090771;28;20039;-59
2021/12/30 14:04:03;;;;;;;14.63;7.30;;;;;;;;;;5090585;28;20402;-59
2021/12/30 14:06:29;;;;;;;14.43;7.85;;;;;;;;;;5071946;28;20032;-60
2021/12/30 14:08:55;;;;;;;16.38;7.25;;;;;;;;;;5090016;28;20379;-61
2021/12/30 14:11:29;;;;;;;17.10;7.95;;;;;;;;;;5090955;28;20053;-71
2021/12/30 14:13:55;;;;;;;19.20;7.55;;;;;;;;;;5091010;28;20063;-64
2021/12/30 14:16:25;;;;;;;17.63;8.07;;;;;;;;;;5090578;28;20128;-64
2021/12/30 14:18:52;;;;;;;12.38;7.30;;;;;;;;;;5090431;28;20064;-64
2021/12/30 14:21:18;;;;;;;13.07;7.22;;;;;;;;;;5070967;28;20032;-64
2021/12/30 14:23:47;;;;;;;13.63;7.68;;;;;;;;;;5087290;28;20040;-64
2021/12/30 14:26:14;;;;;;;;;;;;;;;;;;5088650;28;20107;-66
2021/12/30 14:29:00;;;;;;;13.02;7.90;;;;;;;;;;5088773;28;19919;-64